Date,TemperatureHighF,TemperatureAvgF,TemperatureLowF,DewpointHighF,DewpointAvgF,DewpointLowF,HumidityHigh,HumidityAvg,HumidityLow,PressureMaxIn,PressureMinIn,WindSpeedMaxMPH,WindSpeedAvgMPH,GustSpeedMaxMPH,PrecipitationSumIn
2013-1-1,43.2,27.7,0.0,39.0,29.4,1.5,91,73,26,29.93,29.68,52,1,52,0.04
2013-1-2,41.7,26.8,19.0,24.2,18.3,13.2,85,72,34,29.98,29.87,6,1,6,0.00
2013-1-3,41.0,24.7,13.3,24.9,17.1,9.9,88,74,44,30.09,29.94,13,2,13,0.00
2013-1-4,40.1,28.9,19.4,25.5,21.0,15.4,87,73,51,30.13,30.06,19,3,19,0.00
2013-1-5,43.7,29.5,16.5,29.2,22.1,13.4,89,75,54,30.09,29.90,11,1,11,0.00
2013-1-6,39.0,33.4,19.2,31.8,25.8,15.2,85,73,65,30.10,29.81,19,5,19,0.00
2013-1-7,49.3,26.4,14.2,27.4,18.5,10.8,88,74,38,30.17,29.95,10,1,10,0.00
2013-1-8,57.4,32.6,18.1,34.3,24.2,14.7,88,74,37,30.03,29.93,13,2,13,0.00
2013-1-9,61.7,43.3,0.0,45.9,36.8,27.5,90,78,49,30.22,29.94,9,2,9,0.02
2013-1-10,49.3,41.8,32.7,46.8,37.3,-6.1,92,85,56,30.25,29.85,50,3,50,0.36
2013-1-11,68.9,55.5,9.0,54.3,49.1,7.2,95,80,50,29.85,29.68,17,4,17,0.12
2013-1-12,68.2,61.1,49.8,62.0,57.5,47.3,94,88,79,29.85,29.60,14,3,14,0.12
2013-1-13,67.5,47.8,27.9,60.4,44.9,23.4,95,90,76,30.04,29.56,23,5,23,1.26
2013-1-14,33.4,26.8,22.5,23.7,20.6,17.8,84,77,66,30.26,30.04,100,2,100,0.01
2013-1-15,32.0,26.1,21.0,26.3,21.1,17.5,87,81,69,30.17,29.89,8,0,8,0.00
2013-1-16,35.4,30.8,28.9,28.2,26.1,-15.8,89,83,10,29.95,29.83,8,1,8,0.01
2013-1-17,54.3,35.2,26.1,35.2,26.2,19.3,90,72,36,30.24,29.94,10,2,10,0.02
2013-1-18,47.7,31.2,17.1,25.4,20.5,13.9,89,67,40,30.35,30.09,16,3,16,0.00
2013-1-19,59.5,43.5,34.9,29.6,25.7,22.9,66,51,25,30.10,29.81,22,6,22,0.00
2013-1-20,49.3,37.7,22.5,33.9,16.8,6.9,74,45,18,30.09,29.85,15,4,16,0.00
2013-1-21,28.8,22.4,12.6,16.1,7.6,-1.8,72,54,32,30.12,29.99,25,8,25,0.00
2013-1-22,22.8,13.9,7.2,3.8,-1.9,-5.7,63,49,31,30.24,30.11,14,5,14,0.00
2013-1-23,38.8,23.0,8.4,18.1,9.2,1.7,76,57,32,30.19,29.92,12,3,12,0.00
2013-1-24,31.8,24.2,17.1,18.4,3.2,-10.0,67,43,17,30.38,29.97,13,4,13,0.00
2013-1-25,27.5,23.2,17.4,22.2,14.3,0.0,88,71,37,30.20,29.90,11,3,11,0.00
2013-1-26,45.1,25.9,13.5,23.2,16.4,10.2,89,70,31,30.22,29.99,8,1,8,0.01
2013-1-27,41.7,31.5,19.0,39.1,24.8,14.2,92,77,55,30.22,29.95,10,2,10,0.18
2013-1-28,54.9,49.4,41.4,50.2,45.2,-3.4,93,86,73,29.97,29.88,14,5,14,0.27
2013-1-29,66.6,59.3,52.5,59.0,54.0,48.8,89,83,76,29.90,29.39,26,8,26,0.01
2013-1-30,69.1,50.4,30.2,60.2,44.9,22.1,93,81,69,29.56,29.17,52,10,52,0.49
2013-1-31,36.0,27.9,14.4,25.9,18.4,6.0,90,68,50,29.99,29.56,26,11,26,0.00
2013-2-1,25.5,13.5,5.0,8.6,2.2,-3.7,76,61,43,30.29,29.98,20,6,20,0.00
2013-2-2,38.3,26.4,14.7,26.1,19.7,8.3,89,76,50,30.14,29.85,16,4,16,0.05
2013-2-3,29.3,24.4,12.4,23.8,18.2,8.0,86,77,63,29.98,29.81,16,4,16,0.00
2013-2-4,43.3,29.6,11.1,38.6,23.7,7.8,92,80,50,29.95,29.66,54,3,54,0.17
2013-2-5,51.1,38.4,29.3,37.7,31.8,25.4,91,78,50,29.88,29.70,13,4,13,0.05
2013-2-6,49.5,33.9,23.0,31.5,27.1,20.5,91,77,47,30.08,29.87,13,1,13,0.00
2013-2-7,69.4,48.3,30.7,44.1,34.3,22.5,87,63,31,29.99,29.66,14,3,14,0.00
2013-2-8,52.7,34.7,23.9,45.6,28.6,19.9,87,78,72,30.17,29.67,19,5,19,0.17
2013-2-9,51.1,33.4,20.1,26.9,22.8,-17.9,89,68,10,30.22,29.98,50,2,50,0.00
2013-2-10,55.8,45.3,35.2,49.3,37.0,22.9,91,73,46,29.99,29.63,21,5,21,0.26
2013-2-11,54.0,47.4,32.7,50.1,33.4,23.9,91,60,39,29.94,29.63,26,9,26,0.01
2013-2-12,57.4,37.9,23.4,32.9,25.6,19.5,89,65,26,29.99,29.74,9,2,9,0.00
2013-2-13,45.9,35.4,29.3,32.9,28.8,26.1,90,77,56,29.76,29.61,12,2,12,0.07
2013-2-14,58.5,42.0,28.9,38.1,32.8,26.7,93,72,42,29.85,29.70,18,5,18,0.01
2013-2-15,44.6,34.1,20.8,33.0,24.7,14.8,88,70,39,30.01,29.84,20,4,20,0.00
2013-2-16,51.8,25.8,17.4,33.3,13.2,-18.9,99,61,33,30.00,29.91,103,5,103,0.00
2013-2-17,89.4,27.1,12.9,42.0,12.9,-13.2,84,59,10,30.08,29.96,10,2,10,0.00
2013-2-18,81.5,44.3,23.7,41.4,27.9,15.9,86,55,28,29.99,29.58,107,8,107,0.35
2013-2-19,45.7,33.7,21.9,42.1,23.9,12.5,91,68,44,30.02,29.54,26,10,26,0.13
2013-2-20,35.6,25.1,16.7,14.1,12.0,9.2,76,58,38,30.15,30.01,17,4,17,0.00
2013-2-21,38.5,27.4,16.2,28.6,18.7,11.4,89,71,43,30.13,29.79,14,4,14,0.01
2013-2-22,46.0,36.7,28.9,37.2,32.5,25.3,93,85,69,29.84,29.67,17,3,17,0.10
2013-2-23,48.6,36.3,23.4,30.0,22.5,18.7,84,60,32,29.85,29.75,17,4,17,0.00
2013-2-24,55.2,33.0,17.8,26.2,21.0,14.6,88,66,27,29.97,29.81,8,1,8,0.00
2013-2-25,54.1,37.8,23.9,25.1,22.7,20.1,88,58,29,29.93,29.60,16,5,16,0.00
2013-2-26,48.7,42.5,38.7,46.0,36.6,22.5,92,81,46,29.60,29.21,16,6,16,0.76
2013-2-27,38.7,35.7,32.4,35.6,31.1,27.5,91,83,69,29.62,29.40,20,8,20,0.04
2013-2-28,36.0,33.6,31.3,31.9,29.9,27.2,90,86,83,29.83,29.60,15,4,15,0.01
2013-3-1,39.2,33.6,31.5,32.0,30.1,28.9,92,87,68,29.86,29.79,9,2,9,0.07
2013-3-2,33.1,30.0,27.7,29.6,23.5,19.0,92,77,64,29.95,29.85,9,2,9,0.04
2013-3-3,42.3,30.4,20.5,22.9,18.1,10.3,85,63,31,29.95,29.88,14,4,14,0.00
2013-3-4,44.6,33.7,17.4,27.2,19.8,13.8,87,60,35,29.96,29.74,14,3,14,0.00
2013-3-5,46.6,39.7,30.2,44.4,34.3,26.0,93,82,50,29.75,29.45,26,6,26,0.30
2013-3-6,35.6,32.7,30.4,29.4,28.4,27.2,91,84,75,30.12,29.64,16,7,19,0.02
2013-3-7,41.7,34.9,31.1,32.0,28.8,27.3,89,78,64,30.21,30.10,6,2,6,0.02
2013-3-8,57.2,40.0,25.7,32.8,27.0,22.1,89,63,31,30.27,30.15,8,2,8,0.00
2013-3-9,64.6,52.1,30.0,36.1,31.8,26.0,85,49,28,30.16,29.85,12,3,12,0.00
2013-3-10,74.0,61.7,52.9,48.5,35.9,31.5,77,39,22,29.85,29.62,18,7,21,0.02
2013-3-11,56.7,48.5,37.2,52.9,43.5,30.7,93,83,60,29.76,29.51,21,7,21,1.08
2013-3-12,53.3,43.7,35.8,33.2,28.0,23.3,88,55,35,30.63,29.76,19,8,19,1.10
2013-3-13,38.0,32.7,24.8,32.7,21.9,16.3,89,65,47,30.19,29.90,24,8,24,0.00
2013-3-14,50.6,32.7,18.2,32.1,22.1,14.7,90,69,27,30.21,30.03,13,3,13,0.00
2013-3-15,66.0,46.0,28.8,44.5,36.3,26.6,92,72,39,30.03,29.57,31,2,31,0.06
2013-3-16,75.0,61.2,43.4,52.8,46.7,39.4,86,60,45,29.83,29.50,21,8,21,0.05
2013-3-17,43.2,37.5,34.7,39.7,34.9,32.4,92,90,86,29.91,29.71,15,4,15,1.50
2013-3-18,140.4,43.0,36.3,53.7,39.9,-12.9,94,89,79,29.73,29.48,16,5,16,0.74
2013-3-19,52.5,39.4,28.4,34.2,21.7,-13.7,91,54,10,29.99,29.72,21,6,21,0.00
2013-3-20,51.5,31.2,21.2,25.7,18.2,11.6,87,61,34,29.98,29.86,23,6,23,0.00
2013-3-21,46.2,29.1,17.6,21.8,12.7,5.4,76,53,20,30.15,29.82,19,4,19,2.36
2013-3-22,49.7,32.6,15.3,29.8,16.5,11.5,86,56,24,29.95,29.85,12,2,12,0.00
2013-3-23,62.1,46.3,36.5,30.0,25.5,20.1,69,47,24,29.90,29.69,12,2,12,0.00
2013-3-24,47.0,39.9,29.5,37.6,32.1,-12.7,93,77,10,29.69,29.27,53,5,53,0.56
2013-3-25,37.4,34.0,32.2,33.1,30.3,27.8,92,86,80,29.89,29.35,23,9,23,0.02
2013-3-26,46.1,37.4,33.5,33.4,28.7,24.3,90,72,49,30.15,29.89,14,6,14,0.01
2013-3-27,54.0,36.8,22.8,29.7,24.5,19.3,89,63,32,30.22,30.15,18,3,18,0.00
2013-3-28,62.0,38.7,19.9,33.8,23.5,16.7,91,61,21,30.25,30.14,12,2,12,0.00
2013-3-29,61.6,43.1,26.7,41.6,32.8,-4.1,88,69,38,30.19,30.05,12,2,12,0.00
2013-3-30,64.9,46.8,30.3,45.3,35.4,27.7,93,69,32,30.10,29.81,13,2,13,0.00
2013-3-31,63.8,50.7,38.8,49.4,44.2,35.2,93,80,47,29.81,29.69,19,3,19,0.12
2013-4-1,57.8,44.4,29.0,39.3,28.2,16.3,91,57,24,30.02,29.71,19,4,19,0.00
2013-4-2,58.6,39.0,21.1,28.5,17.9,9.1,84,49,14,30.15,30.00,14,3,14,0.00
2013-4-3,56.0,39.1,21.1,27.9,17.6,10.5,85,49,18,30.25,30.13,13,3,13,0.00
2013-4-4,60.9,45.6,30.7,28.5,20.6,14.2,80,40,19,30.15,29.87,10,2,10,0.00
2013-4-5,73.3,47.9,24.7,39.4,27.8,21.7,90,55,16,29.99,29.86,15,2,15,0.00
2013-4-6,77.1,56.0,27.2,41.9,33.1,14.7,86,48,21,30.01,29.69,109,4,109,0.00
2013-4-7,78.2,66.8,56.9,56.4,45.8,-24.4,77,48,33,29.77,29.69,58,6,58,0.00
2013-4-8,76.9,64.0,53.0,57.0,51.7,47.0,84,66,47,29.77,29.68,109,5,109,0.00
2013-4-9,84.8,69.3,53.5,61.4,55.9,15.0,86,65,10,29.85,29.73,53,5,53,0.01
2013-4-10,88.1,73.9,58.0,72.0,59.8,-31.3,89,63,10,29.76,29.56,20,5,20,0.00
2013-4-11,75.1,64.9,54.1,62.0,58.8,8.9,94,82,52,29.58,29.35,16,4,16,0.97
2013-4-12,93.5,47.4,36.6,51.8,36.5,30.8,92,68,24,29.76,29.41,19,7,19,0.98
2013-4-13,64.3,46.6,30.7,39.5,33.2,-40.5,90,64,10,29.85,29.76,22,4,99,0.19
2013-4-14,79.3,57.7,35.7,47.6,39.5,11.2,91,57,21,29.81,29.63,18,4,18,0.00
2013-4-15,77.8,65.7,58.0,58.4,52.0,47.2,74,62,43,29.79,29.69,12,4,12,0.00
2013-4-16,94.4,69.5,60.9,67.6,60.7,15.3,93,74,56,29.93,29.72,106,5,106,0.12
2013-4-17,83.6,66.4,59.5,69.7,62.0,57.1,94,86,60,29.93,29.71,10,3,10,0.44
2013-4-18,83.8,72.2,62.7,63.3,58.3,18.0,93,65,41,29.71,29.40,20,5,20,0.02
2013-4-19,73.0,46.2,26.3,61.4,37.6,21.3,93,73,51,29.84,29.36,19,8,19,1.22
2013-4-20,63.1,44.1,8.0,36.4,28.6,-21.8,92,61,10,30.16,29.84,15,4,15,0.00
2013-4-21,68.8,48.5,0.8,35.7,29.8,-27.4,82,53,20,30.26,30.10,12,3,12,0.00
2013-4-22,78.9,54.7,34.1,46.4,37.6,21.9,87,59,23,30.13,29.90,50,2,50,0.00
2013-4-23,74.8,59.5,43.1,55.1,48.3,-15.1,90,68,47,29.93,29.66,16,4,16,0.00
2013-4-24,67.4,49.6,33.0,55.9,42.8,30.0,93,79,59,30.06,29.62,20,6,20,0.68
2013-4-25,76.9,45.6,28.9,54.6,31.9,-16.6,93,65,10,30.17,30.05,105,5,105,0.19
2013-4-26,78.4,50.6,-1.0,43.3,33.6,-24.8,92,59,10,30.23,30.11,102,2,102,0.19
2013-4-27,62.2,54.2,48.1,53.9,48.3,6.0,92,81,68,30.15,29.77,12,2,12,0.07
2013-4-28,63.8,58.4,55.1,58.6,54.6,1.6,94,87,73,29.78,29.67,13,4,13,0.01
2013-4-29,77.3,61.2,51.2,56.2,52.7,-35.4,92,76,41,29.84,29.73,15,2,15,0.00
2013-4-30,88.6,64.7,43.3,59.2,50.5,41.4,94,66,26,29.85,29.75,13,2,13,0.00
2013-5-1,91.1,68.2,48.5,62.2,54.6,46.6,94,67,29,29.96,29.84,11,2,11,0.00
2013-5-2,82.9,67.7,55.7,60.2,56.7,16.4,92,71,42,29.99,29.87,12,2,12,0.00
2013-5-3,80.3,64.8,-12.9,60.9,55.1,-51.0,93,74,10,29.87,29.68,19,3,19,0.28
2013-5-4,61.6,56.4,52.4,57.9,51.8,47.5,95,85,61,29.80,29.70,10,2,10,1.14
2013-5-5,55.7,53.6,51.4,52.7,51.0,-1.3,95,91,10,29.78,29.68,12,3,12,0.64
2013-5-6,76.6,59.5,52.3,57.7,53.8,7.9,95,83,10,29.74,29.62,12,2,12,0.05
2013-5-7,81.6,63.5,-3.5,59.2,54.8,-12.5,96,76,40,29.79,29.72,8,1,8,0.06
2013-5-8,89.0,66.3,50.1,63.4,55.3,6.2,95,72,34,29.83,29.75,8,1,8,0.00
2013-5-9,84.8,66.0,51.4,67.5,57.7,49.6,95,79,34,29.86,29.75,18,2,18,0.29
2013-5-10,77.8,63.9,59.3,64.9,61.6,32.2,95,92,81,29.77,29.64,12,2,12,0.84
2013-5-11,111.7,57.9,50.8,60.4,51.0,37.0,95,79,53,29.86,29.70,13,4,13,0.02
2013-5-12,64.0,51.0,25.6,38.4,33.5,20.6,89,55,26,29.97,29.85,20,5,20,0.00
2013-5-13,70.6,52.6,6.7,41.7,35.0,-13.6,93,58,24,30.03,29.93,56,4,56,0.38
2013-5-14,88.1,66.4,42.7,61.4,50.1,16.9,88,59,36,29.96,29.67,102,4,102,0.00
2013-5-15,90.2,78.0,69.2,62.8,57.9,-31.4,70,52,30,29.79,29.69,18,6,18,0.00
2013-5-16,78.4,68.4,59.6,65.9,59.1,6.1,93,73,10,29.80,29.70,13,2,13,0.02
2013-5-17,79.3,67.4,56.6,67.7,61.2,54.6,94,82,58,29.86,29.78,9,1,9,0.02
2013-5-18,88.4,71.3,63.6,68.1,64.5,60.9,93,80,46,29.86,29.76,9,1,9,0.00
2013-5-19,93.1,75.0,57.8,74.0,66.0,56.1,96,77,49,29.81,29.69,50,2,50,0.00
2013-5-20,91.9,77.2,65.4,72.0,68.2,63.3,95,76,49,29.81,29.69,12,3,12,0.00
2013-5-21,88.1,75.1,64.1,68.8,64.7,-30.5,93,72,45,29.81,29.63,19,4,19,0.13
2013-5-22,81.4,70.9,63.1,67.7,63.6,60.9,93,78,56,29.64,29.58,16,3,16,0.05
2013-5-23,71.5,63.8,54.1,62.0,57.7,48.5,95,81,60,29.93,29.63,18,4,18,0.07
2013-5-24,81.8,59.0,44.2,52.2,46.3,38.7,93,67,23,30.15,29.93,12,2,12,0.00
2013-5-25,77.8,58.6,40.2,53.5,45.6,38.3,95,67,30,30.18,29.99,7,1,7,0.00
2013-5-26,83.4,64.5,53.0,57.5,52.5,47.0,92,68,35,30.09,29.95,8,2,8,0.05
2013-5-27,88.6,73.3,57.3,63.2,57.7,52.6,86,61,35,29.95,29.77,19,4,19,0.00
2013-5-28,89.2,78.0,67.2,67.9,62.5,-29.9,84,60,39,29.85,29.75,22,4,22,0.00
2013-5-29,92.6,75.9,60.4,66.5,62.3,56.8,91,66,36,29.90,29.80,14,3,14,0.00
2013-5-30,90.6,77.1,64.7,72.2,66.4,61.7,92,71,48,29.93,29.80,16,3,16,0.00
2013-5-31,88.1,74.9,70.4,76.3,68.0,12.7,94,80,10,29.85,29.73,15,4,15,0.35
2013-6-1,78.0,71.0,63.6,70.5,66.0,60.8,95,85,69,29.79,29.60,19,3,19,0.42
2013-6-2,80.7,71.5,64.3,66.1,62.5,59.3,95,74,52,29.77,29.68,13,4,13,0.00
2013-6-3,80.0,65.0,52.3,59.9,55.7,49.7,94,74,43,29.88,29.76,8,1,8,0.00
2013-6-4,85.7,65.3,48.1,60.9,54.6,46.8,95,72,38,29.92,29.83,50,1,50,0.02
2013-6-5,92.8,72.4,56.4,67.6,59.7,-39.1,89,67,36,29.87,29.66,8,1,8,0.00
2013-6-6,87.7,72.1,62.0,70.0,65.7,11.0,95,82,48,29.67,29.58,50,1,50,0.12
2013-6-7,88.6,71.7,60.7,66.3,62.6,58.5,96,76,41,29.69,29.60,7,1,7,0.00
2013-6-8,88.1,72.7,58.9,66.9,62.1,56.9,94,72,40,29.83,29.67,8,1,8,0.00
2013-6-9,84.7,71.9,60.0,70.0,64.1,57.9,94,78,48,30.45,29.67,11,2,11,0.07
2013-6-10,80.5,70.6,0.0,69.1,65.1,14.5,96,83,61,29.73,29.62,14,4,14,0.36
2013-6-11,91.0,73.6,57.5,69.7,64.1,56.1,96,75,43,29.82,29.73,11,2,11,0.00
2013-6-12,99.2,82.2,67.4,79.8,72.3,65.6,96,74,48,29.80,29.59,21,4,21,0.00
2013-6-13,91.7,79.6,62.2,74.0,66.1,53.8,82,64,36,29.79,29.51,20,6,20,0.05
2013-6-14,95.5,70.3,52.8,64.0,57.4,50.5,95,69,29,29.87,29.75,8,1,8,0.00
2013-6-15,91.9,74.1,56.8,67.1,61.2,55.3,96,69,36,29.93,29.79,17,2,17,0.00
2013-6-16,85.4,72.6,65.2,72.6,67.0,62.5,95,83,63,29.87,29.78,7,1,7,0.34
2013-6-17,95.5,75.2,64.5,75.9,68.1,61.8,97,81,43,29.83,29.69,8,2,8,0.62
2013-6-18,92.2,73.9,63.4,70.3,65.1,61.1,97,77,41,29.79,29.66,10,2,10,0.00
2013-6-19,92.4,74.2,60.5,68.7,63.2,59.3,96,73,36,29.91,29.78,8,1,8,0.00
2013-6-20,98.3,76.3,60.7,68.1,62.7,55.9,96,68,27,30.00,29.91,8,1,8,0.19
2013-6-21,118.3,77.4,61.4,99.9,66.4,59.7,96,73,40,30.01,29.90,9,2,9,0.00
2013-6-22,95.3,79.2,65.4,74.2,69.2,64.1,97,75,44,30.00,29.88,11,2,11,0.00
2013-6-23,92.9,75.2,63.8,75.4,68.0,62.6,97,81,44,29.95,29.87,13,2,13,0.01
2013-6-24,83.0,74.3,68.6,73.1,69.5,66.5,95,86,66,29.97,29.87,10,2,10,0.06
2013-6-25,96.7,80.1,65.6,77.4,71.5,64.7,98,78,47,29.89,29.73,13,2,13,0.01
2013-6-26,89.0,72.4,-4.4,76.9,70.0,-5.4,97,84,65,29.82,29.55,59,3,59,1.75
2013-6-27,93.1,78.8,68.1,77.7,72.4,12.0,97,82,55,29.64,29.58,15,3,15,0.01
2013-6-28,91.0,80.1,67.0,71.9,65.2,58.6,95,64,35,29.59,29.45,19,5,19,0.00
2013-6-29,86.6,72.2,62.7,70.7,64.4,60.3,97,78,49,29.50,29.42,14,3,50,0.65
2013-6-30,88.8,71.8,65.0,68.7,65.3,-21.1,98,82,44,29.64,29.47,16,2,16,0.16
2013-7-1,87.2,71.1,62.9,70.6,65.7,-10.2,98,84,54,29.73,29.61,6,1,6,0.52
2013-7-2,87.9,73.2,63.8,69.2,65.2,57.0,96,78,46,29.84,29.71,12,2,12,0.00
2013-7-3,88.3,72.7,61.4,70.9,65.7,60.5,97,81,48,29.92,29.83,10,2,10,0.00
2013-7-4,73.7,70.3,55.1,72.8,68.3,-7.6,98,94,31,29.95,29.87,104,2,104,0.29
2013-7-5,102.8,72.3,-8.0,72.3,67.8,-10.5,99,87,62,29.95,29.88,10,1,10,0.00
2013-7-6,80.2,70.3,45.2,69.1,65.4,-11.9,98,87,10,29.94,29.88,105,2,105,0.36
2013-7-7,92.8,76.2,65.6,70.8,67.5,64.6,99,78,45,29.93,29.86,8,2,8,0.01
2013-7-8,94.6,77.5,64.1,76.0,69.6,-34.6,98,79,49,29.97,29.88,10,1,10,0.00
2013-7-9,96.4,82.3,71.3,77.9,74.2,69.6,96,78,51,29.92,29.81,11,2,11,0.00
2013-7-10,92.6,78.4,69.2,79.0,73.4,42.4,97,85,64,29.83,29.67,19,2,19,0.28
2013-7-11,71.3,70.9,70.4,70.5,69.9,69.2,97,96,95,29.77,29.75,2,0,2,0.00
2013-7-20,85.9,77.5,73.3,73.4,70.7,69.1,89,80,62,29.75,29.69,8,1,8,0.00
2013-7-21,99.1,79.5,69.7,75.6,71.3,68.2,97,79,39,29.79,29.68,8,1,8,0.00
2013-7-22,87.9,75.4,70.3,75.9,71.7,68.8,99,89,65,29.76,29.61,14,2,14,0.04
2013-7-23,94.2,78.1,68.1,77.6,72.6,67.6,99,85,54,29.68,29.57,10,2,10,0.00
2013-7-24,89.7,73.1,62.0,70.1,62.2,58.2,95,71,41,29.80,29.65,7,1,7,0.00
2013-7-25,89.9,70.7,56.2,65.8,59.9,55.1,98,73,35,29.90,29.80,7,1,7,0.00
2013-7-26,86.8,71.5,55.5,67.4,61.3,54.7,98,74,45,29.90,29.80,8,2,8,0.00
2013-7-27,82.9,70.5,62.2,68.3,63.6,56.1,97,81,48,29.81,29.69,12,3,12,0.16
2013-7-28,81.8,64.6,48.3,57.8,53.0,12.7,97,70,38,29.89,29.77,11,2,11,0.00
2013-7-29,85.9,64.6,51.5,65.9,56.6,50.7,99,80,41,30.00,29.88,10,2,10,0.00
2013-7-30,85.6,68.2,58.4,69.1,63.3,57.1,97,86,47,30.02,29.91,8,1,8,0.12
2013-7-31,79.1,70.8,65.6,71.2,67.3,-12.8,97,89,74,29.93,29.77,104,1,104,0.01
2013-8-1,114.5,75.1,62.3,85.9,66.1,29.1,99,77,38,29.84,29.76,14,2,50,0.05
2013-8-2,89.0,72.8,57.1,69.1,64.0,-30.0,99,77,45,29.86,29.79,10,2,10,0.00
2013-8-3,95.5,76.6,64.7,75.8,69.3,63.2,97,80,51,29.87,29.78,11,2,11,0.00
2013-8-4,88.1,73.4,57.8,66.1,60.1,54.3,97,68,34,29.96,29.86,8,1,8,0.00
2013-8-5,91.0,71.1,52.8,64.1,58.3,52.0,98,70,34,29.93,26.89,10,2,10,0.00
2013-8-6,90.1,76.8,68.1,76.5,69.8,63.2,95,80,59,29.78,29.73,7,1,7,0.00
2013-8-7,87.9,77.7,69.5,76.5,73.5,68.5,99,88,64,29.77,29.69,9,1,9,0.00
2013-8-8,93.5,80.3,69.5,76.9,74.0,68.8,99,83,55,29.78,27.48,11,1,11,0.23
2013-8-9,92.6,78.1,71.2,77.4,72.4,13.1,99,86,10,29.85,29.74,50,2,50,0.01
2013-8-10,96.0,77.3,70.3,76.0,72.8,67.4,99,88,44,29.93,29.84,6,0,6,0.00
2013-8-11,91.7,78.4,65.9,74.9,69.5,27.5,99,77,47,29.92,29.86,10,2,10,0.00
2013-8-12,84.8,72.1,61.8,76.6,69.4,61.0,99,92,68,29.91,29.72,7,1,7,0.74
2013-8-13,91.0,74.8,58.6,73.6,68.2,11.7,99,82,47,29.88,29.69,8,1,8,0.26
2013-8-14,105.7,65.3,49.9,75.0,53.2,13.6,98,70,10,29.97,29.88,55,1,55,0.00
2013-8-15,89.2,65.0,-9.1,60.3,53.7,-21.4,98,72,27,29.96,29.87,6,1,6,0.00
2013-8-16,89.2,69.1,52.6,64.5,58.2,-35.7,98,73,37,29.94,29.89,6,1,6,0.00
2013-8-17,93.1,71.3,38.6,68.4,61.2,-13.2,89,73,10,29.98,29.89,5,0,5,0.02
2013-8-18,95.5,73.4,-13.6,68.7,62.1,-26.0,98,73,10,29.98,29.89,6,1,6,0.38
2013-8-19,105.4,75.6,59.3,99.9,65.6,-37.2,99,76,35,29.95,29.86,102,1,102,0.00
2013-8-20,96.9,75.1,4.9,74.7,67.4,-39.5,99,80,10,29.96,29.88,10,1,10,0.00
2013-8-21,95.5,77.0,64.0,75.6,69.6,9.0,99,81,46,29.97,29.87,9,1,9,0.05
2013-8-22,91.9,76.2,-18.1,75.3,69.0,-24.4,99,79,50,30.01,29.84,108,2,108,0.01
2013-8-23,98.9,78.4,65.2,74.0,68.8,63.5,99,77,36,29.99,29.90,6,1,6,0.01
2013-8-24,98.9,76.5,60.9,71.8,62.4,53.4,99,70,25,30.10,29.98,8,1,8,0.00
2013-8-25,100.3,75.0,56.6,71.0,63.5,55.7,99,73,32,30.18,30.07,8,1,8,0.00
2013-8-26,94.9,77.1,62.7,75.0,69.0,61.9,99,79,45,30.12,29.97,11,2,11,0.00
2013-8-27,98.2,79.7,69.0,76.7,72.7,68.1,99,81,46,29.99,29.86,10,2,11,0.00
2013-8-28,98.5,83.0,71.3,74.3,71.3,66.7,99,72,38,29.89,29.81,17,4,17,0.00
2013-8-29,103.6,82.7,69.2,77.2,71.0,67.1,97,71,32,29.89,29.82,7,1,7,0.00
2013-8-30,102.3,81.3,66.8,76.7,71.0,66.1,99,75,38,29.85,29.72,11,2,11,0.00
2013-8-31,98.9,82.2,70.3,79.2,73.6,68.2,98,78,49,29.80,29.62,16,3,16,0.23
2013-9-1,93.5,78.1,69.0,76.9,71.8,68.0,99,83,55,29.77,29.58,15,3,15,0.24
2013-9-2,93.7,76.7,65.8,77.0,70.1,65.0,99,82,47,29.76,29.68,12,2,12,0.00
2013-9-3,91.3,72.6,58.6,65.3,61.0,54.9,98,72,31,29.92,29.75,10,1,10,0.00
2013-9-4,95.5,70.4,52.4,70.3,58.9,51.7,99,73,33,30.02,29.92,8,1,8,0.00
2013-9-5,95.1,73.8,56.4,74.7,62.3,55.9,99,73,33,30.06,29.99,9,1,9,0.00
2013-9-6,97.3,74.9,60.9,68.8,64.1,60.3,98,74,32,30.07,29.95,7,1,7,0.00
2013-9-7,93.7,74.7,58.9,73.4,64.7,58.4,99,75,41,29.96,29.83,11,2,11,0.00
2013-9-8,94.4,77.4,67.6,78.2,69.2,65.5,99,79,45,29.87,29.81,9,1,9,0.04
2013-9-9,99.2,79.7,64.0,76.5,69.6,63.7,99,76,41,29.91,29.83,9,2,9,0.00
2013-9-10,98.0,79.2,71.2,77.0,72.6,70.1,99,82,49,30.01,29.90,12,2,12,0.00
2013-9-11,99.6,80.2,67.4,77.0,71.4,66.7,99,79,36,30.03,29.93,9,2,9,0.01
2013-9-12,85.7,74.3,65.4,75.1,69.0,63.5,99,85,52,29.93,29.79,12,2,12,0.07
2013-9-13,82.3,65.4,47.4,63.8,51.6,44.9,99,67,27,30.60,29.82,13,2,13,0.00
2013-9-14,47.4,45.5,43.8,44.9,43.8,42.3,95,94,91,29.95,29.93,1,0,1,0.00
2013-9-15,87.2,63.1,42.4,62.5,52.0,41.6,99,72,34,29.98,29.90,13,2,13,0.00
2013-9-16,81.6,68.0,58.7,63.8,61.1,56.1,93,80,53,30.10,29.93,8,1,8,0.00
2013-9-17,85.0,65.8,53.7,58.8,55.0,51.6,97,73,32,30.13,29.99,11,2,11,0.00
2013-9-18,82.7,67.6,55.0,70.2,63.5,53.3,98,87,62,30.02,29.92,9,1,9,0.04
2013-9-19,91.9,72.8,63.4,74.4,68.4,63.2,99,88,52,29.99,29.84,12,1,12,0.01
2013-9-20,86.5,73.3,66.7,72.8,69.3,66.1,99,89,59,29.87,29.69,14,3,14,0.86
2013-9-21,80.5,66.0,51.5,67.3,58.1,50.0,99,80,38,29.75,29.62,12,2,12,0.30
2013-9-22,83.8,61.7,46.9,61.9,50.6,46.6,99,73,31,29.86,29.75,8,1,8,0.00
2013-9-23,82.0,60.5,44.2,58.9,50.3,43.6,99,75,35,29.93,29.85,9,2,9,0.00
2013-9-24,87.4,65.3,50.8,65.3,57.6,49.7,99,79,42,29.89,29.74,8,1,8,0.00
2013-9-25,86.5,69.2,58.6,68.6,62.5,57.4,97,82,44,29.77,29.70,7,1,7,0.02
2013-9-26,89.5,67.5,51.7,67.7,55.1,49.5,99,72,26,29.92,29.77,7,1,7,0.00
2013-9-27,92.2,66.2,49.0,69.5,54.5,48.8,99,73,29,30.02,29.92,8,1,8,0.00
2013-9-28,89.2,66.4,49.7,65.6,56.9,49.4,99,76,37,30.02,29.92,12,1,12,0.00
2013-9-29,64.9,60.4,53.3,62.4,59.1,52.8,99,96,84,29.94,29.87,8,1,8,0.10
2013-9-30,82.9,67.8,60.0,67.2,63.2,59.3,99,87,57,29.89,29.82,10,1,10,0.02
2013-10-1,88.1,68.1,55.3,69.1,62.5,55.1,99,85,46,29.95,29.87,10,1,10,0.00
2013-10-2,81.6,69.5,59.5,75.7,67.7,59.2,99,95,74,29.98,29.90,8,0,8,0.59
2013-10-3,88.4,73.8,66.7,75.4,69.1,66.2,99,87,53,29.96,29.86,7,1,7,0.07
2013-10-4,91.7,73.5,65.4,73.2,68.9,65.1,99,87,52,29.95,29.88,8,1,8,0.01
2013-10-5,75.7,70.2,67.7,73.1,69.8,67.5,99,98,90,29.92,29.78,8,1,8,2.05
2013-10-6,69.0,62.0,50.8,68.6,61.5,47.8,99,98,83,29.80,29.66,12,3,12,1.93
2013-10-7,71.5,54.2,44.9,50.3,47.4,44.4,99,81,44,30.02,29.75,14,3,14,0.01
2013-10-8,77.6,55.1,40.6,57.6,46.4,40.3,99,78,34,30.10,30.01,11,1,11,0.00
2013-10-9,85.6,59.3,42.2,60.7,51.5,41.9,99,80,38,30.06,29.99,7,1,7,0.00
2013-10-10,86.6,61.3,45.6,65.6,52.8,45.3,99,79,36,30.03,29.93,8,0,8,0.00
2013-10-11,87.4,61.4,44.7,66.1,50.6,44.4,99,75,25,29.96,29.88,8,1,8,0.00
2013-10-12,85.6,62.7,46.5,66.9,55.6,46.2,99,82,41,29.98,29.89,8,1,8,0.00
2013-10-13,88.6,67.4,49.4,64.8,58.1,46.8,99,76,33,30.16,29.97,6,1,6,0.00
2013-10-14,82.0,58.8,45.1,57.8,49.4,43.2,97,75,34,30.17,30.01,8,1,8,0.00
2013-10-15,72.4,62.4,52.3,65.7,60.5,51.4,99,94,74,30.01,29.80,10,1,10,0.10
2013-10-16,65.6,59.9,45.4,64.8,56.4,45.2,99,89,67,29.85,29.76,9,2,9,0.02
2013-10-17,64.9,49.5,40.9,53.3,46.0,40.4,99,89,58,29.86,29.77,13,2,13,0.13
2013-10-18,73.7,51.6,37.9,56.6,44.9,37.4,99,82,39,29.92,29.81,11,1,11,0.00
2013-10-19,57.8,47.9,35.3,49.9,44.4,34.6,99,89,57,29.89,29.71,15,2,15,0.18
2013-10-20,69.4,48.6,33.5,47.8,40.6,33.1,99,78,39,29.92,29.85,12,2,12,0.00
2013-10-21,72.8,53.0,36.4,51.5,44.6,35.9,99,76,41,29.88,29.78,15,3,15,0.00
2013-10-22,64.9,48.3,31.2,48.4,36.4,29.3,99,68,33,29.91,29.67,9,2,9,0.00
2013-10-23,52.1,44.5,36.1,44.3,37.0,31.1,89,76,50,29.94,29.63,19,6,19,0.01
2013-10-24,46.3,39.3,29.2,38.2,33.1,26.0,92,79,59,30.16,29.93,14,2,14,0.02
2013-10-25,60.0,36.8,24.2,35.3,27.1,23.2,98,73,28,30.32,30.15,8,1,8,0.00
2013-10-26,61.8,40.8,24.7,40.5,32.5,23.5,97,76,42,30.15,29.82,16,3,16,0.00
2013-10-27,71.5,44.1,28.0,49.8,33.4,27.2,99,73,24,29.97,29.89,8,1,8,0.04
2013-10-28,77.3,48.5,32.1,48.9,35.9,31.2,99,71,20,30.13,29.93,8,1,8,0.00
2013-10-29,61.1,47.7,34.1,54.9,45.0,33.3,99,91,76,30.17,30.01,6,1,6,0.16
2013-10-30,70.8,63.0,55.1,67.6,62.0,54.9,99,97,87,30.02,29.87,8,2,8,1.40
2013-10-31,67.6,64.0,58.6,66.9,61.5,56.0,99,92,80,29.88,29.29,32,6,32,1.39
2013-11-1,70.6,58.0,49.6,56.0,49.3,44.2,96,75,41,29.66,29.35,19,6,19,0.00
2013-11-2,61.3,47.4,36.2,47.1,41.1,35.6,99,80,51,29.98,29.66,16,3,16,0.00
2013-11-3,65.6,43.5,30.1,48.2,35.7,29.6,99,78,35,30.18,29.98,8,1,8,0.00
2013-11-4,61.6,50.9,36.6,47.0,41.5,35.3,96,72,51,30.21,30.12,11,2,11,0.00
2013-11-5,66.5,54.7,48.3,48.2,45.1,42.8,93,72,45,30.24,30.05,8,2,8,0.00
2013-11-6,65.8,55.8,43.8,60.3,51.5,42.5,99,86,67,30.05,29.85,19,4,19,0.44
2013-11-7,56.9,43.2,33.9,42.5,33.4,24.6,99,72,31,30.17,29.97,11,4,14,0.01
2013-11-8,63.2,41.0,25.8,40.7,29.5,24.3,97,69,25,30.24,30.08,7,1,8,0.00
2013-11-9,66.8,49.1,32.3,42.8,35.0,28.3,88,61,33,30.08,29.93,17,4,17,0.00
2013-11-10,66.5,45.9,28.9,43.0,32.7,23.0,99,66,20,30.20,30.02,12,2,12,0.00
2013-11-11,68.3,45.2,27.1,45.8,32.8,25.8,97,68,22,30.16,29.96,12,3,12,0.03
2013-11-12,48.7,34.6,21.1,40.6,24.2,17.8,95,69,31,30.48,30.10,11,2,11,0.04
2013-11-13,55.8,32.5,17.0,35.8,23.6,15.1,94,74,34,30.50,30.25,10,2,10,0.00
2013-11-14,64.8,41.5,23.8,29.2,23.3,15.6,90,56,16,30.25,30.00,15,3,15,0.00
2013-11-15,56.0,46.0,34.0,48.4,35.6,24.6,98,69,44,30.02,29.93,9,2,9,0.13
2013-11-16,66.5,58.2,48.8,63.8,56.2,48.2,99,95,88,29.95,29.72,22,4,22,0.01
2013-11-17,72.0,65.6,55.6,70.1,61.3,41.5,99,88,41,29.73,29.42,25,7,25,3.14
2013-11-18,62.6,49.8,32.9,45.9,37.5,-11.5,96,66,10,30.08,29.72,21,5,21,0.00
2013-11-19,53.5,37.1,26.1,35.3,29.5,23.9,96,77,44,30.18,30.07,7,1,7,0.00
2013-11-20,64.1,42.9,29.7,39.6,32.5,25.2,91,72,35,30.12,30.01,11,2,11,0.00
2013-11-21,66.2,54.9,45.2,54.9,46.8,35.9,99,75,61,30.13,30.00,11,2,11,0.21
2013-11-22,59.4,52.8,42.0,59.1,51.2,37.2,99,94,83,30.24,30.01,12,3,12,0.10
2013-11-23,47.1,36.0,22.1,37.5,25.7,12.0,87,68,33,30.44,30.22,18,4,18,0.00
2013-11-24,47.4,24.7,13.2,46.2,14.6,8.3,98,68,31,30.54,29.51,7,2,7,3.48
2013-11-25,42.5,32.2,20.2,32.2,21.3,15.5,95,66,39,29.91,29.57,13,2,13,0.00
2013-11-26,37.9,34.9,33.3,35.8,32.2,27.2,98,90,72,29.62,29.34,9,1,9,0.10
2013-11-27,38.8,27.1,14.4,28.3,18.6,10.5,84,71,47,29.72,29.38,16,3,16,0.00
2013-11-28,44.3,24.8,13.3,19.5,15.5,10.5,91,71,34,29.84,29.69,14,2,14,0.00
2013-11-29,54.9,29.1,15.5,29.0,20.4,13.4,94,74,34,30.00,29.84,6,1,6,0.00
2013-11-30,63.2,36.6,21.2,34.5,25.9,19.5,95,71,29,29.87,29.59,14,2,14,0.00
2013-12-1,63.0,45.5,32.9,41.0,34.6,29.7,91,67,43,29.59,29.36,10,2,10,0.00
2013-12-2,62.8,45.0,32.0,44.0,39.3,30.7,97,82,51,29.36,29.16,9,1,9,0.00
2013-12-3,59.5,48.0,31.6,53.8,46.2,30.7,99,93,78,29.25,29.16,9,1,9,0.00
2013-12-4,71.1,59.8,42.5,63.6,56.0,41.4,99,88,71,29.23,29.09,16,3,16,0.00
2013-12-5,69.6,47.9,33.5,65.0,45.3,31.9,99,91,76,29.57,29.19,16,4,16,1.10
2013-12-6,33.5,28.9,25.7,32.2,27.9,25.0,99,96,93,29.80,29.53,7,0,7,0.27
2013-12-7,42.1,22.9,6.7,25.6,18.1,4.7,98,83,48,29.99,29.79,0,0,0,0.14
2013-12-8,33.6,27.5,21.5,33.4,25.5,18.3,99,92,85,29.87,29.43,0,0,0,0.00
2013-12-9,33.6,28.7,21.9,33.4,26.4,20.4,99,91,80,29.64,29.43,0,0,0,0.00
2013-12-10,36.8,23.0,8.3,24.1,17.5,5.6,93,80,52,29.76,29.57,0,0,0,0.02
2013-12-11,42.6,21.8,6.5,30.2,15.9,3.0,93,79,58,29.93,29.71,17,3,17,0.23
2013-12-12,35.3,18.0,1.7,13.2,7.7,-1.4,89,67,32,29.98,29.75,8,2,8,0.02
2013-12-13,46.3,28.3,12.2,33.5,20.2,8.7,96,74,41,29.75,29.50,13,2,13,0.00
2013-12-14,40.6,36.5,33.3,40.4,35.9,31.7,99,98,94,29.50,29.13,15,4,15,1.03
2013-12-15,33.3,29.7,27.0,31.7,25.9,23.0,94,86,76,29.55,29.36,18,5,18,0.02
2013-12-16,50.3,35.9,28.5,37.2,31.5,27.3,96,85,60,29.53,29.41,12,3,12,0.00
2013-12-17,39.7,32.7,25.9,37.4,29.5,23.5,99,88,66,29.62,29.40,15,4,15,0.00
2013-12-18,51.6,33.6,17.9,24.2,21.1,16.2,95,66,28,29.70,29.47,10,3,10,0.00
2013-12-19,65.4,48.2,29.6,46.8,35.6,22.6,81,63,44,29.51,29.37,17,4,17,0.00
2013-12-20,63.4,58.5,53.1,61.5,52.5,42.0,99,81,58,29.37,29.24,16,6,16,0.04
2013-12-21,70.9,64.5,60.8,67.1,63.3,60.5,99,96,87,29.25,28.87,25,6,25,3.97
2013-12-22,63.2,49.0,36.4,62.9,47.6,34.2,99,95,89,29.51,28.93,20,7,20,0.33
2013-12-23,36.2,31.1,26.5,34.7,25.9,20.0,94,81,71,29.83,29.51,16,6,16,0.00
2013-12-24,35.1,20.9,12.9,21.9,12.0,5.8,87,70,37,29.98,29.80,15,4,15,0.00
2013-12-25,41.2,28.1,15.3,26.7,19.1,12.5,91,71,44,29.84,29.63,12,2,12,0.00
2013-12-26,49.4,34.8,23.4,31.2,26.5,21.0,92,73,42,29.79,29.62,15,3,19,0.00
2013-12-27,57.0,33.6,20.6,33.9,26.1,18.9,96,77,39,29.82,29.72,11,2,11,0.00
2013-12-28,52.7,36.5,22.3,36.4,28.9,20.8,97,77,49,29.72,29.40,7,2,8,0.06
2013-12-29,47.8,38.2,29.8,44.5,36.4,28.1,99,93,79,29.51,29.26,19,4,19,0.79
2013-12-30,38.0,27.5,20.4,28.4,20.2,13.4,95,75,46,29.67,29.50,12,4,12,0.01
2013-12-31,48.9,29.7,19.7,24.4,19.9,14.7,83,69,36,29.80,29.60,12,3,12,0.00
2014-1-1,53.1,36.0,22.4,33.2,27.1,20.2,94,72,39,29.68,29.39,12,2,12,0.00
2014-1-2,38.4,26.9,12.3,35.2,24.2,8.2,99,89,80,29.74,29.23,21,5,21,0.33